sensor_id;sensor_type;location;lat;lon;timestamp;P1;durP1;ratioP1;P2;durP2;ratioP2
39848;SDS011;25518;47.878;15.914;2022-11-15T00:02:30;8.35;;;3.55;;
39848;SDS011;25518;47.878;15.914;2022-11-15T00:05:19;6.45;;;3.70;;
39848;SDS011;25518;47.878;15.914;2022-11-15T00:08:09;5.78;;;3.33;;
39848;SDS011;25518;47.878;15.914;2022-11-15T00:11:00;6.27;;;3.43;;
39848;SDS011;25518;47.878;15.914;2022-11-15T00:13:51;10.20;;;4.63;;
39848;SDS011;25518;47.878;15.914;2022-11-15T00:16:45;8.95;;;4.10;;
39848;SDS011;25518;47.878;15.914;2022-11-15T00:19:34;12.25;;;6.18;;
39848;SDS011;25518;47.878;15.914;2022-11-15T00:22:24;9.68;;;4.22;;
39848;SDS011;25518;47.878;15.914;2022-11-15T00:25:13;9.05;;;3.83;;
39848;SDS011;25518;47.878;15.914;2022-11-15T00:28:03;6.57;;;3.47;;
39848;SDS011;25518;47.878;15.914;2022-11-15T00:30:53;6.70;;;3.78;;
39848;SDS011;25518;47.878;15.914;2022-11-15T00:33:43;5.63;;;3.40;;
39848;SDS011;25518;47.878;15.914;2022-11-15T00:36:33;7.22;;;3.35;;
39848;SDS011;25518;47.878;15.914;2022-11-15T00:39:23;8.88;;;3.50;;
39848;SDS011;25518;47.878;15.914;2022-11-15T00:42:13;7.68;;;4.00;;
39848;SDS011;25518;47.878;15.914;2022-11-15T00:45:02;8.63;;;3.85;;
39848;SDS011;25518;47.878;15.914;2022-11-15T00:47:53;8.55;;;4.55;;
39848;SDS011;25518;47.878;15.914;2022-11-15T00:50:42;6.47;;;4.10;;
39848;SDS011;25518;47.878;15.914;2022-11-15T00:53:32;6.03;;;3.17;;
39848;SDS011;25518;47.878;15.914;2022-11-15T00:56:21;7.75;;;3.63;;
39848;SDS011;25518;47.878;15.914;2022-11-15T00:59:11;7.05;;;4.05;;
39848;SDS011;25518;47.878;15.914;2022-11-15T01:02:00;6.50;;;3.70;;
39848;SDS011;25518;47.878;15.914;2022-11-15T01:04:50;12.90;;;5.63;;
39848;SDS011;25518;47.878;15.914;2022-11-15T01:07:40;12.05;;;5.70;;
39848;SDS011;25518;47.878;15.914;2022-11-15T01:10:29;10.23;;;4.95;;
39848;SDS011;25518;47.878;15.914;2022-11-15T01:13:18;7.78;;;4.32;;
39848;SDS011;25518;47.878;15.914;2022-11-15T01:16:09;8.32;;;4.20;;
39848;SDS011;25518;47.878;15.914;2022-11-15T01:19:02;7.72;;;3.90;;
39848;SDS011;25518;47.878;15.914;2022-11-15T01:21:52;7.05;;;3.65;;
39848;SDS011;25518;47.878;15.914;2022-11-15T01:24:41;8.43;;;4.70;;
39848;SDS011;25518;47.878;15.914;2022-11-15T01:27:31;5.37;;;2.97;;
39848;SDS011;25518;47.878;15.914;2022-11-15T01:30:20;6.88;;;3.00;;
39848;SDS011;25518;47.878;15.914;2022-11-15T01:33:10;5.57;;;3.13;;
39848;SDS011;25518;47.878;15.914;2022-11-15T01:36:03;5.45;;;3.05;;
39848;SDS011;25518;47.878;15.914;2022-11-15T01:38:54;6.13;;;2.90;;
39848;SDS011;25518;47.878;15.914;2022-11-15T01:41:46;6.40;;;3.20;;
39848;SDS011;25518;47.878;15.914;2022-11-15T01:44:38;5.75;;;2.72;;
39848;SDS011;25518;47.878;15.914;2022-11-15T01:47:33;7.43;;;3.28;;
39848;SDS011;25518;47.878;15.914;2022-11-15T01:50:29;9.27;;;4.55;;
39848;SDS011;25518;47.878;15.914;2022-11-15T01:53:22;7.85;;;4.82;;
39848;SDS011;25518;47.878;15.914;2022-11-15T01:56:17;6.95;;;3.92;;
39848;SDS011;25518;47.878;15.914;2022-11-15T01:59:10;7.57;;;3.87;;
39848;SDS011;25518;47.878;15.914;2022-11-15T02:02:00;7.20;;;3.80;;
39848;SDS011;25518;47.878;15.914;2022-11-15T02:04:50;7.88;;;4.15;;
39848;SDS011;25518;47.878;15.914;2022-11-15T02:07:39;6.80;;;3.40;;
39848;SDS011;25518;47.878;15.914;2022-11-15T02:10:29;7.22;;;3.72;;
39848;SDS011;25518;47.878;15.914;2022-11-15T02:13:19;5.57;;;3.42;;
39848;SDS011;25518;47.878;15.914;2022-11-15T02:16:13;4.93;;;2.42;;
39848;SDS011;25518;47.878;15.914;2022-11-15T02:26:05;7.85;;;3.67;;
39848;SDS011;25518;47.878;15.914;2022-11-15T02:32:03;10.38;;;4.28;;
39848;SDS011;25518;47.878;15.914;2022-11-15T02:38:24;8.20;;;4.47;;
39848;SDS011;25518;47.878;15.914;2022-11-15T02:41:25;7.95;;;4.63;;
39848;SDS011;25518;47.878;15.914;2022-11-15T02:44:39;8.73;;;4.68;;
39848;SDS011;25518;47.878;15.914;2022-11-15T02:47:36;9.63;;;5.07;;
39848;SDS011;25518;47.878;15.914;2022-11-15T02:50:31;8.48;;;5.07;;
39848;SDS011;25518;47.878;15.914;2022-11-15T02:53:24;8.82;;;4.90;;
39848;SDS011;25518;47.878;15.914;2022-11-15T02:56:14;7.00;;;4.20;;
39848;SDS011;25518;47.878;15.914;2022-11-15T02:59:08;6.78;;;4.03;;
39848;SDS011;25518;47.878;15.914;2022-11-15T03:19:04;6.95;;;4.10;;
39848;SDS011;25518;47.878;15.914;2022-11-15T03:22:03;6.37;;;3.87;;
39848;SDS011;25518;47.878;15.914;2022-11-15T03:24:57;7.25;;;4.10;;
39848;SDS011;25518;47.878;15.914;2022-11-15T03:27:52;6.00;;;3.53;;
39848;SDS011;25518;47.878;15.914;2022-11-15T03:30:44;7.13;;;3.87;;
39848;SDS011;25518;47.878;15.914;2022-11-15T03:33:37;8.25;;;4.30;;
39848;SDS011;25518;47.878;15.914;2022-11-15T03:36:27;6.68;;;3.60;;
39848;SDS011;25518;47.878;15.914;2022-11-15T03:39:19;5.60;;;3.30;;
39848;SDS011;25518;47.878;15.914;2022-11-15T03:42:17;5.68;;;3.60;;
39848;SDS011;25518;47.878;15.914;2022-11-15T03:45:29;5.93;;;3.05;;
39848;SDS011;25518;47.878;15.914;2022-11-15T03:48:25;5.47;;;3.22;;
39848;SDS011;25518;47.878;15.914;2022-11-15T03:51:19;7.00;;;3.17;;
39848;SDS011;25518;47.878;15.914;2022-11-15T03:54:10;6.32;;;3.35;;
39848;SDS011;25518;47.878;15.914;2022-11-15T03:57:01;5.03;;;3.13;;
39848;SDS011;25518;47.878;15.914;2022-11-15T03:59:51;5.50;;;3.05;;
39848;SDS011;25518;47.878;15.914;2022-11-15T04:02:41;5.60;;;3.00;;
39848;SDS011;25518;47.878;15.914;2022-11-15T04:05:30;5.15;;;3.35;;
39848;SDS011;25518;47.878;15.914;2022-11-15T04:08:20;5.30;;;3.00;;
39848;SDS011;25518;47.878;15.914;2022-11-15T04:11:09;5.47;;;3.00;;
39848;SDS011;25518;47.878;15.914;2022-11-15T04:13:59;4.90;;;2.70;;
39848;SDS011;25518;47.878;15.914;2022-11-15T04:16:49;6.55;;;3.08;;
39848;SDS011;25518;47.878;15.914;2022-11-15T04:19:38;5.40;;;3.10;;
39848;SDS011;25518;47.878;15.914;2022-11-15T04:22:48;5.88;;;2.63;;
39848;SDS011;25518;47.878;15.914;2022-11-15T04:26:02;7.30;;;3.10;;
39848;SDS011;25518;47.878;15.914;2022-11-15T04:28:55;5.90;;;2.97;;
39848;SDS011;25518;47.878;15.914;2022-11-15T04:32:06;5.32;;;2.58;;
39848;SDS011;25518;47.878;15.914;2022-11-15T04:34:55;4.30;;;2.58;;
39848;SDS011;25518;47.878;15.914;2022-11-15T04:37:45;4.75;;;2.80;;
39848;SDS011;25518;47.878;15.914;2022-11-15T04:40:35;5.10;;;2.83;;
39848;SDS011;25518;47.878;15.914;2022-11-15T04:43:25;5.78;;;2.47;;
39848;SDS011;25518;47.878;15.914;2022-11-15T04:46:16;4.63;;;2.65;;
39848;SDS011;25518;47.878;15.914;2022-11-15T04:49:06;5.35;;;2.85;;
39848;SDS011;25518;47.878;15.914;2022-11-15T04:51:55;5.20;;;2.60;;
39848;SDS011;25518;47.878;15.914;2022-11-15T04:54:45;5.57;;;2.83;;
39848;SDS011;25518;47.878;15.914;2022-11-15T04:57:34;6.05;;;2.72;;
39848;SDS011;25518;47.878;15.914;2022-11-15T05:00:25;5.13;;;3.13;;
39848;SDS011;25518;47.878;15.914;2022-11-15T05:03:15;6.45;;;3.05;;
39848;SDS011;25518;47.878;15.914;2022-11-15T05:06:25;6.70;;;3.03;;
39848;SDS011;25518;47.878;15.914;2022-11-15T05:09:14;6.38;;;3.10;;
39848;SDS011;25518;47.878;15.914;2022-11-15T05:12:04;4.53;;;2.90;;
39848;SDS011;25518;47.878;15.914;2022-11-15T05:14:53;5.38;;;3.28;;
39848;SDS011;25518;47.878;15.914;2022-11-15T05:17:43;6.25;;;3.63;;
39848;SDS011;25518;47.878;15.914;2022-11-15T05:20:33;5.13;;;3.35;;
39848;SDS011;25518;47.878;15.914;2022-11-15T05:23:22;6.70;;;3.47;;
39848;SDS011;25518;47.878;15.914;2022-11-15T05:26:12;5.82;;;3.55;;
39848;SDS011;25518;47.878;15.914;2022-11-15T05:29:03;6.00;;;3.60;;
39848;SDS011;25518;47.878;15.914;2022-11-15T05:31:53;5.88;;;3.70;;
39848;SDS011;25518;47.878;15.914;2022-11-15T05:34:43;6.05;;;3.72;;
39848;SDS011;25518;47.878;15.914;2022-11-15T05:37:33;6.50;;;3.25;;
39848;SDS011;25518;47.878;15.914;2022-11-15T05:40:23;6.03;;;3.40;;
39848;SDS011;25518;47.878;15.914;2022-11-15T05:43:13;6.78;;;3.67;;
39848;SDS011;25518;47.878;15.914;2022-11-15T05:46:03;6.50;;;4.35;;
39848;SDS011;25518;47.878;15.914;2022-11-15T05:48:53;8.73;;;6.30;;
39848;SDS011;25518;47.878;15.914;2022-11-15T05:51:45;9.05;;;5.63;;
39848;SDS011;25518;47.878;15.914;2022-11-15T05:54:37;12.68;;;6.75;;
39848;SDS011;25518;47.878;15.914;2022-11-15T05:57:26;8.95;;;6.82;;
39848;SDS011;25518;47.878;15.914;2022-11-15T06:00:16;9.47;;;5.53;;
39848;SDS011;25518;47.878;15.914;2022-11-15T06:03:05;10.90;;;5.15;;
39848;SDS011;25518;47.878;15.914;2022-11-15T06:05:55;9.98;;;5.68;;
39848;SDS011;25518;47.878;15.914;2022-11-15T06:08:45;13.27;;;6.07;;
39848;SDS011;25518;47.878;15.914;2022-11-15T06:11:36;13.60;;;7.38;;
39848;SDS011;25518;47.878;15.914;2022-11-15T06:14:26;10.40;;;6.43;;
39848;SDS011;25518;47.878;15.914;2022-11-15T06:17:15;13.30;;;6.90;;
39848;SDS011;25518;47.878;15.914;2022-11-15T06:20:05;9.43;;;6.07;;
39848;SDS011;25518;47.878;15.914;2022-11-15T06:22:57;9.63;;;5.65;;
39848;SDS011;25518;47.878;15.914;2022-11-15T06:25:47;9.52;;;6.32;;
39848;SDS011;25518;47.878;15.914;2022-11-15T06:28:37;10.90;;;5.57;;
39848;SDS011;25518;47.878;15.914;2022-11-15T06:31:27;9.43;;;5.18;;
39848;SDS011;25518;47.878;15.914;2022-11-15T06:34:17;10.00;;;5.30;;
39848;SDS011;25518;47.878;15.914;2022-11-15T06:37:06;7.32;;;4.75;;
39848;SDS011;25518;47.878;15.914;2022-11-15T06:39:56;11.00;;;6.68;;
39848;SDS011;25518;47.878;15.914;2022-11-15T06:42:46;13.10;;;7.40;;
39848;SDS011;25518;47.878;15.914;2022-11-15T06:45:35;11.68;;;7.07;;
39848;SDS011;25518;47.878;15.914;2022-11-15T06:48:25;17.30;;;9.25;;
39848;SDS011;25518;47.878;15.914;2022-11-15T06:51:15;10.05;;;6.18;;
39848;SDS011;25518;47.878;15.914;2022-11-15T06:54:05;11.70;;;6.82;;
39848;SDS011;25518;47.878;15.914;2022-11-15T06:56:54;12.33;;;6.47;;
39848;SDS011;25518;47.878;15.914;2022-11-15T06:59:44;10.88;;;5.97;;
39848;SDS011;25518;47.878;15.914;2022-11-15T07:02:34;10.18;;;5.53;;
39848;SDS011;25518;47.878;15.914;2022-11-15T07:05:23;10.55;;;5.70;;
39848;SDS011;25518;47.878;15.914;2022-11-15T07:08:13;11.18;;;6.07;;
39848;SDS011;25518;47.878;15.914;2022-11-15T07:11:04;15.23;;;6.55;;
39848;SDS011;25518;47.878;15.914;2022-11-15T07:13:55;11.33;;;5.53;;
39848;SDS011;25518;47.878;15.914;2022-11-15T07:16:45;10.52;;;6.70;;
39848;SDS011;25518;47.878;15.914;2022-11-15T07:19:34;10.43;;;5.93;;
39848;SDS011;25518;47.878;15.914;2022-11-15T07:22:24;12.68;;;6.05;;
39848;SDS011;25518;47.878;15.914;2022-11-15T07:25:14;13.05;;;7.13;;
39848;SDS011;25518;47.878;15.914;2022-11-15T07:28:03;11.30;;;5.78;;
39848;SDS011;25518;47.878;15.914;2022-11-15T07:30:53;14.15;;;5.90;;
39848;SDS011;25518;47.878;15.914;2022-11-15T07:33:43;14.35;;;7.05;;
39848;SDS011;25518;47.878;15.914;2022-11-15T07:36:32;12.20;;;6.88;;
39848;SDS011;25518;47.878;15.914;2022-11-15T07:39:22;13.57;;;6.55;;
39848;SDS011;25518;47.878;15.914;2022-11-15T07:42:12;13.05;;;7.38;;
39848;SDS011;25518;47.878;15.914;2022-11-15T07:45:22;13.93;;;7.60;;
39848;SDS011;25518;47.878;15.914;2022-11-15T07:48:14;14.73;;;8.77;;
39848;SDS011;25518;47.878;15.914;2022-11-15T07:51:04;14.55;;;8.15;;
39848;SDS011;25518;47.878;15.914;2022-11-15T07:53:54;12.23;;;8.02;;
39848;SDS011;25518;47.878;15.914;2022-11-15T07:56:44;12.38;;;7.35;;
39848;SDS011;25518;47.878;15.914;2022-11-15T07:59:33;9.98;;;7.10;;
39848;SDS011;25518;47.878;15.914;2022-11-15T08:02:23;13.20;;;8.90;;
39848;SDS011;25518;47.878;15.914;2022-11-15T08:05:13;16.42;;;10.48;;
39848;SDS011;25518;47.878;15.914;2022-11-15T08:08:03;15.80;;;10.15;;
39848;SDS011;25518;47.878;15.914;2022-11-15T08:10:52;20.27;;;12.73;;
39848;SDS011;25518;47.878;15.914;2022-11-15T08:13:42;14.07;;;8.80;;
39848;SDS011;25518;47.878;15.914;2022-11-15T08:16:32;14.18;;;8.55;;
39848;SDS011;25518;47.878;15.914;2022-11-15T08:19:21;14.38;;;8.68;;
39848;SDS011;25518;47.878;15.914;2022-11-15T08:22:11;14.63;;;9.30;;
39848;SDS011;25518;47.878;15.914;2022-11-15T08:25:01;15.63;;;10.13;;
39848;SDS011;25518;47.878;15.914;2022-11-15T08:27:51;16.85;;;9.25;;
39848;SDS011;25518;47.878;15.914;2022-11-15T08:30:42;17.83;;;9.45;;
39848;SDS011;25518;47.878;15.914;2022-11-15T08:33:34;16.58;;;10.52;;
39848;SDS011;25518;47.878;15.914;2022-11-15T08:36:24;15.05;;;9.35;;
39848;SDS011;25518;47.878;15.914;2022-11-15T08:39:14;15.52;;;9.40;;
39848;SDS011;25518;47.878;15.914;2022-11-15T08:42:04;15.85;;;9.15;;
39848;SDS011;25518;47.878;15.914;2022-11-15T08:44:53;15.80;;;9.50;;
39848;SDS011;25518;47.878;15.914;2022-11-15T08:47:43;15.70;;;8.93;;
39848;SDS011;25518;47.878;15.914;2022-11-15T08:50:32;12.27;;;8.25;;
39848;SDS011;25518;47.878;15.914;2022-11-15T08:53:23;15.60;;;9.52;;
39848;SDS011;25518;47.878;15.914;2022-11-15T08:56:13;15.80;;;9.57;;
39848;SDS011;25518;47.878;15.914;2022-11-15T08:59:03;15.37;;;9.40;;
39848;SDS011;25518;47.878;15.914;2022-11-15T09:01:53;16.33;;;9.35;;
39848;SDS011;25518;47.878;15.914;2022-11-15T09:04:43;15.68;;;9.20;;
39848;SDS011;25518;47.878;15.914;2022-11-15T09:07:33;18.10;;;10.00;;
39848;SDS011;25518;47.878;15.914;2022-11-15T09:10:22;15.02;;;8.90;;
39848;SDS011;25518;47.878;15.914;2022-11-15T09:13:12;13.77;;;9.00;;
39848;SDS011;25518;47.878;15.914;2022-11-15T09:16:02;16.15;;;8.95;;
39848;SDS011;25518;47.878;15.914;2022-11-15T09:18:53;14.80;;;8.77;;
39848;SDS011;25518;47.878;15.914;2022-11-15T09:21:43;14.15;;;8.82;;
39848;SDS011;25518;47.878;15.914;2022-11-15T09:24:33;13.45;;;8.43;;
39848;SDS011;25518;47.878;15.914;2022-11-15T09:27:27;15.48;;;9.75;;
39848;SDS011;25518;47.878;15.914;2022-11-15T09:30:18;13.43;;;8.68;;
39848;SDS011;25518;47.878;15.914;2022-11-15T09:33:09;14.77;;;9.15;;
39848;SDS011;25518;47.878;15.914;2022-11-15T09:36:00;14.85;;;8.80;;
39848;SDS011;25518;47.878;15.914;2022-11-15T09:38:52;13.93;;;9.32;;
39848;SDS011;25518;47.878;15.914;2022-11-15T09:41:48;13.93;;;8.48;;
39848;SDS011;25518;47.878;15.914;2022-11-15T09:44:56;14.18;;;8.88;;
39848;SDS011;25518;47.878;15.914;2022-11-15T09:51:01;15.05;;;9.15;;
39848;SDS011;25518;47.878;15.914;2022-11-15T09:56:50;17.15;;;9.70;;
39848;SDS011;25518;47.878;15.914;2022-11-15T09:59:45;16.30;;;9.67;;
39848;SDS011;25518;47.878;15.914;2022-11-15T10:03:02;17.98;;;11.38;;
39848;SDS011;25518;47.878;15.914;2022-11-15T10:05:59;14.45;;;8.75;;
39848;SDS011;25518;47.878;15.914;2022-11-15T10:11:47;15.07;;;9.18;;
39848;SDS011;25518;47.878;15.914;2022-11-15T10:14:37;15.57;;;9.00;;
39848;SDS011;25518;47.878;15.914;2022-11-15T10:23:34;15.00;;;9.25;;
39848;SDS011;25518;47.878;15.914;2022-11-15T10:26:24;14.15;;;8.77;;
39848;SDS011;25518;47.878;15.914;2022-11-15T10:29:18;17.83;;;9.60;;
39848;SDS011;25518;47.878;15.914;2022-11-15T10:32:10;19.70;;;11.95;;
39848;SDS011;25518;47.878;15.914;2022-11-15T10:35:00;20.17;;;13.23;;
39848;SDS011;25518;47.878;15.914;2022-11-15T10:38:09;15.60;;;8.90;;
39848;SDS011;25518;47.878;15.914;2022-11-15T10:41:06;15.55;;;8.60;;
39848;SDS011;25518;47.878;15.914;2022-11-15T10:44:29;14.73;;;9.15;;
39848;SDS011;25518;47.878;15.914;2022-11-15T10:47:24;15.05;;;9.20;;
39848;SDS011;25518;47.878;15.914;2022-11-15T10:50:28;14.57;;;8.83;;
39848;SDS011;25518;47.878;15.914;2022-11-15T10:56:13;13.55;;;8.20;;
39848;SDS011;25518;47.878;15.914;2022-11-15T10:59:15;13.45;;;8.63;;
39848;SDS011;25518;47.878;15.914;2022-11-15T11:02:45;13.32;;;8.50;;
39848;SDS011;25518;47.878;15.914;2022-11-15T11:05:38;15.80;;;8.98;;
39848;SDS011;25518;47.878;15.914;2022-11-15T11:08:28;14.90;;;9.60;;
39848;SDS011;25518;47.878;15.914;2022-11-15T11:11:18;15.23;;;9.05;;
39848;SDS011;25518;47.878;15.914;2022-11-15T11:14:18;13.77;;;8.80;;
39848;SDS011;25518;47.878;15.914;2022-11-15T11:17:15;13.60;;;8.93;;
39848;SDS011;25518;47.878;15.914;2022-11-15T11:20:23;13.88;;;8.90;;
39848;SDS011;25518;47.878;15.914;2022-11-15T11:36:25;17.00;;;10.63;;
39848;SDS011;25518;47.878;15.914;2022-11-15T11:39:30;19.23;;;12.30;;
39848;SDS011;25518;47.878;15.914;2022-11-15T11:42:45;17.48;;;10.57;;
39848;SDS011;25518;47.878;15.914;2022-11-15T11:48:48;16.83;;;10.55;;
39848;SDS011;25518;47.878;15.914;2022-11-15T11:51:53;14.50;;;10.03;;
39848;SDS011;25518;47.878;15.914;2022-11-15T11:55:10;16.73;;;9.88;;
39848;SDS011;25518;47.878;15.914;2022-11-15T12:04:30;14.65;;;9.85;;
39848;SDS011;25518;47.878;15.914;2022-11-15T12:07:24;15.93;;;9.63;;
39848;SDS011;25518;47.878;15.914;2022-11-15T12:13:19;14.30;;;9.55;;
39848;SDS011;25518;47.878;15.914;2022-11-15T12:16:16;16.58;;;9.80;;
39848;SDS011;25518;47.878;15.914;2022-11-15T12:19:11;16.38;;;9.70;;
39848;SDS011;25518;47.878;15.914;2022-11-15T12:27:56;16.08;;;10.00;;
39848;SDS011;25518;47.878;15.914;2022-11-15T12:30:50;15.18;;;9.30;;
39848;SDS011;25518;47.878;15.914;2022-11-15T12:33:48;14.02;;;9.02;;
39848;SDS011;25518;47.878;15.914;2022-11-15T12:36:39;15.65;;;10.00;;
39848;SDS011;25518;47.878;15.914;2022-11-15T12:46:02;17.10;;;10.48;;
39848;SDS011;25518;47.878;15.914;2022-11-15T12:48:54;17.95;;;10.60;;
39848;SDS011;25518;47.878;15.914;2022-11-15T12:57:29;19.88;;;11.38;;
39848;SDS011;25518;47.878;15.914;2022-11-15T13:03:26;18.80;;;11.65;;
39848;SDS011;25518;47.878;15.914;2022-11-15T13:06:34;19.05;;;11.15;;
39848;SDS011;25518;47.878;15.914;2022-11-15T13:16:01;18.00;;;10.80;;
39848;SDS011;25518;47.878;15.914;2022-11-15T13:18:53;17.20;;;10.65;;
39848;SDS011;25518;47.878;15.914;2022-11-15T13:21:47;18.08;;;10.90;;
39848;SDS011;25518;47.878;15.914;2022-11-15T13:24:58;20.67;;;11.93;;
39848;SDS011;25518;47.878;15.914;2022-11-15T13:27:50;18.52;;;11.05;;
39848;SDS011;25518;47.878;15.914;2022-11-15T13:30:41;18.80;;;11.35;;
39848;SDS011;25518;47.878;15.914;2022-11-15T13:33:41;21.60;;;12.70;;
39848;SDS011;25518;47.878;15.914;2022-11-15T13:36:32;23.48;;;12.85;;
39848;SDS011;25518;47.878;15.914;2022-11-15T13:39:26;22.00;;;12.32;;
39848;SDS011;25518;47.878;15.914;2022-11-15T13:42:19;23.98;;;12.63;;
39848;SDS011;25518;47.878;15.914;2022-11-15T13:45:12;22.85;;;12.95;;
39848;SDS011;25518;47.878;15.914;2022-11-15T13:48:04;22.90;;;13.32;;
39848;SDS011;25518;47.878;15.914;2022-11-15T13:50:57;23.80;;;11.80;;
39848;SDS011;25518;47.878;15.914;2022-11-15T13:53:49;23.65;;;13.30;;
39848;SDS011;25518;47.878;15.914;2022-11-15T13:56:44;23.65;;;13.75;;
39848;SDS011;25518;47.878;15.914;2022-11-15T14:02:51;21.65;;;12.43;;
39848;SDS011;25518;47.878;15.914;2022-11-15T14:05:42;24.13;;;12.75;;
39848;SDS011;25518;47.878;15.914;2022-11-15T14:08:32;24.45;;;13.15;;
39848;SDS011;25518;47.878;15.914;2022-11-15T14:11:22;22.65;;;12.95;;
39848;SDS011;25518;47.878;15.914;2022-11-15T14:14:13;21.92;;;12.55;;
39848;SDS011;25518;47.878;15.914;2022-11-15T14:17:04;22.55;;;12.98;;
39848;SDS011;25518;47.878;15.914;2022-11-15T14:19:54;20.55;;;11.82;;
39848;SDS011;25518;47.878;15.914;2022-11-15T14:22:52;20.90;;;11.80;;
39848;SDS011;25518;47.878;15.914;2022-11-15T14:25:51;20.98;;;11.77;;
39848;SDS011;25518;47.878;15.914;2022-11-15T14:28:43;20.73;;;11.83;;
39848;SDS011;25518;47.878;15.914;2022-11-15T14:31:32;20.88;;;11.85;;
39848;SDS011;25518;47.878;15.914;2022-11-15T14:34:22;23.23;;;12.60;;
39848;SDS011;25518;47.878;15.914;2022-11-15T14:37:20;20.48;;;12.15;;
39848;SDS011;25518;47.878;15.914;2022-11-15T14:40:13;20.70;;;11.75;;
39848;SDS011;25518;47.878;15.914;2022-11-15T14:43:07;19.60;;;11.27;;
39848;SDS011;25518;47.878;15.914;2022-11-15T14:45:58;23.55;;;12.27;;
39848;SDS011;25518;47.878;15.914;2022-11-15T14:48:49;22.45;;;12.63;;
39848;SDS011;25518;47.878;15.914;2022-11-15T14:51:38;19.30;;;11.48;;
39848;SDS011;25518;47.878;15.914;2022-11-15T14:54:28;21.13;;;11.88;;
39848;SDS011;25518;47.878;15.914;2022-11-15T14:57:18;22.38;;;12.00;;
39848;SDS011;25518;47.878;15.914;2022-11-15T15:00:07;22.88;;;11.70;;
39848;SDS011;25518;47.878;15.914;2022-11-15T15:02:58;21.23;;;11.23;;
39848;SDS011;25518;47.878;15.914;2022-11-15T15:05:48;20.33;;;11.40;;
39848;SDS011;25518;47.878;15.914;2022-11-15T15:08:38;19.30;;;11.45;;
39848;SDS011;25518;47.878;15.914;2022-11-15T15:11:29;21.27;;;12.05;;
39848;SDS011;25518;47.878;15.914;2022-11-15T15:14:20;20.23;;;11.38;;
39848;SDS011;25518;47.878;15.914;2022-11-15T15:17:10;21.17;;;12.00;;
39848;SDS011;25518;47.878;15.914;2022-11-15T15:20:00;20.52;;;12.07;;
39848;SDS011;25518;47.878;15.914;2022-11-15T15:22:49;19.75;;;11.10;;
39848;SDS011;25518;47.878;15.914;2022-11-15T15:25:39;17.33;;;11.13;;
39848;SDS011;25518;47.878;15.914;2022-11-15T15:28:30;19.20;;;11.30;;
39848;SDS011;25518;47.878;15.914;2022-11-15T15:31:20;20.88;;;11.55;;
39848;SDS011;25518;47.878;15.914;2022-11-15T15:34:10;19.23;;;11.50;;
39848;SDS011;25518;47.878;15.914;2022-11-15T15:37:08;20.48;;;11.27;;
39848;SDS011;25518;47.878;15.914;2022-11-15T15:39:57;18.98;;;11.35;;
39848;SDS011;25518;47.878;15.914;2022-11-15T15:42:47;20.02;;;11.38;;
39848;SDS011;25518;47.878;15.914;2022-11-15T15:45:38;20.93;;;12.20;;
39848;SDS011;25518;47.878;15.914;2022-11-15T15:48:29;24.23;;;12.38;;
39848;SDS011;25518;47.878;15.914;2022-11-15T15:51:18;20.20;;;10.70;;
39848;SDS011;25518;47.878;15.914;2022-11-15T15:54:08;18.67;;;10.43;;
39848;SDS011;25518;47.878;15.914;2022-11-15T15:56:58;21.38;;;10.68;;
39848;SDS011;25518;47.878;15.914;2022-11-15T15:59:47;20.27;;;10.73;;
39848;SDS011;25518;47.878;15.914;2022-11-15T16:02:38;22.48;;;12.13;;
39848;SDS011;25518;47.878;15.914;2022-11-15T16:05:28;22.45;;;12.27;;
39848;SDS011;25518;47.878;15.914;2022-11-15T16:08:19;23.13;;;12.45;;
39848;SDS011;25518;47.878;15.914;2022-11-15T16:11:11;22.60;;;13.05;;
39848;SDS011;25518;47.878;15.914;2022-11-15T16:14:01;23.02;;;12.95;;
39848;SDS011;25518;47.878;15.914;2022-11-15T16:16:50;26.87;;;14.37;;
39848;SDS011;25518;47.878;15.914;2022-11-15T16:19:40;26.98;;;14.25;;
39848;SDS011;25518;47.878;15.914;2022-11-15T16:22:29;26.45;;;14.00;;
39848;SDS011;25518;47.878;15.914;2022-11-15T16:25:19;22.95;;;12.95;;
39848;SDS011;25518;47.878;15.914;2022-11-15T16:28:12;26.10;;;14.02;;
39848;SDS011;25518;47.878;15.914;2022-11-15T16:31:08;26.58;;;14.02;;
39848;SDS011;25518;47.878;15.914;2022-11-15T16:33:59;26.55;;;14.43;;
39848;SDS011;25518;47.878;15.914;2022-11-15T16:36:49;30.48;;;15.82;;
39848;SDS011;25518;47.878;15.914;2022-11-15T16:39:39;36.28;;;18.42;;
39848;SDS011;25518;47.878;15.914;2022-11-15T16:42:28;34.72;;;16.65;;
39848;SDS011;25518;47.878;15.914;2022-11-15T16:45:18;31.98;;;16.52;;
39848;SDS011;25518;47.878;15.914;2022-11-15T16:48:15;27.55;;;15.23;;
39848;SDS011;25518;47.878;15.914;2022-11-15T16:51:08;31.67;;;16.73;;
39848;SDS011;25518;47.878;15.914;2022-11-15T16:53:58;34.00;;;17.95;;
39848;SDS011;25518;47.878;15.914;2022-11-15T16:56:48;37.23;;;18.23;;
39848;SDS011;25518;47.878;15.914;2022-11-15T16:59:38;34.88;;;16.88;;
39848;SDS011;25518;47.878;15.914;2022-11-15T17:02:27;35.10;;;17.88;;
39848;SDS011;25518;47.878;15.914;2022-11-15T17:05:17;35.25;;;16.77;;
39848;SDS011;25518;47.878;15.914;2022-11-15T17:08:09;35.88;;;17.55;;
39848;SDS011;25518;47.878;15.914;2022-11-15T17:10:59;35.22;;;17.23;;
39848;SDS011;25518;47.878;15.914;2022-11-15T17:13:48;33.50;;;17.53;;
39848;SDS011;25518;47.878;15.914;2022-11-15T17:16:38;35.78;;;17.80;;
39848;SDS011;25518;47.878;15.914;2022-11-15T17:19:30;34.22;;;17.02;;
39848;SDS011;25518;47.878;15.914;2022-11-15T17:22:20;34.60;;;18.10;;
39848;SDS011;25518;47.878;15.914;2022-11-15T17:25:09;38.13;;;17.85;;
39848;SDS011;25518;47.878;15.914;2022-11-15T17:27:59;35.28;;;17.02;;
39848;SDS011;25518;47.878;15.914;2022-11-15T17:30:48;34.60;;;17.58;;
39848;SDS011;25518;47.878;15.914;2022-11-15T17:33:38;33.15;;;17.80;;
39848;SDS011;25518;47.878;15.914;2022-11-15T17:36:30;32.58;;;16.42;;
39848;SDS011;25518;47.878;15.914;2022-11-15T17:39:20;29.83;;;16.10;;
39848;SDS011;25518;47.878;15.914;2022-11-15T17:42:11;31.10;;;16.75;;
39848;SDS011;25518;47.878;15.914;2022-11-15T17:45:01;31.90;;;16.60;;
39848;SDS011;25518;47.878;15.914;2022-11-15T17:47:50;33.15;;;17.15;;
39848;SDS011;25518;47.878;15.914;2022-11-15T17:50:41;35.90;;;16.85;;
39848;SDS011;25518;47.878;15.914;2022-11-15T17:53:31;34.20;;;17.15;;
39848;SDS011;25518;47.878;15.914;2022-11-15T17:56:23;36.80;;;17.40;;
39848;SDS011;25518;47.878;15.914;2022-11-15T17:59:14;33.00;;;16.73;;
39848;SDS011;25518;47.878;15.914;2022-11-15T18:02:04;28.77;;;14.73;;
39848;SDS011;25518;47.878;15.914;2022-11-15T18:04:54;27.23;;;14.75;;
39848;SDS011;25518;47.878;15.914;2022-11-15T18:07:43;26.77;;;14.35;;
39848;SDS011;25518;47.878;15.914;2022-11-15T18:10:33;25.90;;;14.02;;
39848;SDS011;25518;47.878;15.914;2022-11-15T18:13:23;29.33;;;14.93;;
39848;SDS011;25518;47.878;15.914;2022-11-15T18:16:13;24.30;;;12.47;;
39848;SDS011;25518;47.878;15.914;2022-11-15T18:19:06;28.38;;;14.30;;
39848;SDS011;25518;47.878;15.914;2022-11-15T18:22:01;27.48;;;14.85;;
39848;SDS011;25518;47.878;15.914;2022-11-15T18:24:53;24.67;;;13.18;;
39848;SDS011;25518;47.878;15.914;2022-11-15T18:27:42;27.55;;;14.65;;
39848;SDS011;25518;47.878;15.914;2022-11-15T18:30:31;26.45;;;14.23;;
39848;SDS011;25518;47.878;15.914;2022-11-15T18:33:21;28.13;;;14.50;;